Time;durP1;ratioP1;P1;durP2;ratioP2;P2;SDS_P1;SDS_P2;PMS_P1;PMS_P2;Temp;Humidity;BMP_temperature;BMP_pressure;BME280_temperature;BME280_humidity;BME280_pressure;Samples;Min_cycle;Max_cycle;Signal;HPM_P1;HPM_P2
2023/09/12 00:00:48;;;;;;;22.05;14.90;;;14.20;99.90;;;;;;8126190;29;20091;-79
2023/09/12 00:04:50;;;;;;;19.50;15.82;;;14.10;99.90;;;;;;8139032;29;20063;-78
2023/09/12 00:08:54;;;;;;;23.40;16.88;;;14.00;99.90;;;;;;8139990;29;20032;-79
2023/09/12 00:12:55;;;;;;;21.50;17.17;;;13.90;99.90;;;;;;8148051;29;20568;-78
2023/09/12 00:16:55;;;;;;;22.60;16.02;;;13.90;99.90;;;;;;8139854;29;20020;-79
2023/09/12 00:20:56;;;;;;;25.38;18.65;;;13.70;99.90;;;;;;8125371;29;20078;-79
2023/09/12 00:24:57;;;;;;;25.90;18.88;;;13.60;99.90;;;;;;8140191;29;20044;-79
2023/09/12 00:28:57;;;;;;;24.52;18.10;;;13.70;99.90;;;;;;8137970;29;20055;-79
2023/09/12 00:32:58;;;;;;;24.45;17.42;;;13.80;99.90;;;;;;8139280;29;20520;-79
2023/09/12 00:36:58;;;;;;;21.67;16.95;;;13.80;99.90;;;;;;8125645;29;20040;-78
2023/09/12 00:40:59;;;;;;;23.63;17.45;;;13.60;99.90;;;;;;8132905;29;20689;-78
2023/09/12 00:44:59;;;;;;;23.17;17.40;;;13.60;99.90;;;;;;8123055;29;20105;-80
2023/09/12 00:49:03;;;;;;;21.33;16.77;;;13.60;99.90;;;;;;8124847;29;20028;-79
2023/09/12 00:53:04;;;;;;;23.33;17.13;;;13.60;99.90;;;;;;8147403;29;20028;-80
2023/09/12 00:57:04;;;;;;;22.45;17.15;;;13.70;99.90;;;;;;8125101;29;20024;-79
2023/09/12 01:01:05;;;;;;;23.85;17.15;;;13.70;99.90;;;;;;8140374;29;20102;-78
2023/09/12 01:05:07;;;;;;;21.70;16.75;;;13.70;99.90;;;;;;8124679;29;20067;-78
2023/09/12 01:09:08;;;;;;;20.08;15.98;;;13.80;99.90;;;;;;8138749;29;20028;-77
2023/09/12 01:13:09;;;;;;;19.27;15.20;;;13.70;99.90;;;;;;8143465;29;20024;-79
2023/09/12 01:17:09;;;;;;;22.02;15.95;;;13.60;99.90;;;;;;8136450;29;20027;-79
2023/09/12 01:21:36;;;;;;;19.15;14.50;;;13.60;99.90;;;;;;8142109;29;20080;-78
2023/09/12 01:25:55;;;;;;;17.52;13.35;;;13.50;99.90;;;;;;8135908;29;20028;-78
2023/09/12 01:30:00;;;;;;;16.67;13.40;;;13.40;99.90;;;;;;8137848;29;20028;-79
2023/09/12 01:34:10;;;;;;;20.73;14.82;;;13.20;99.90;;;;;;8139721;29;20035;-78
2023/09/12 01:38:11;;;;;;;19.27;15.45;;;13.10;99.90;;;;;;8142215;29;20028;-78
2023/09/12 01:42:22;;;;;;;24.42;18.80;;;13.20;99.90;;;;;;8144070;29;20729;-78
2023/09/12 01:46:24;;;;;;;23.15;15.43;;;13.30;99.90;;;;;;8143528;29;20666;-78
2023/09/12 01:50:26;;;;;;;26.25;16.15;;;13.40;99.90;;;;;;8159870;29;20036;-78
2023/09/12 01:54:28;;;;;;;26.05;17.25;;;13.30;99.90;;;;;;8143298;29;20064;-78
2023/09/12 01:58:30;;;;;;;22.63;16.30;;;13.20;99.90;;;;;;8143577;29;20034;-79
2023/09/12 02:02:30;;;;;;;21.00;16.08;;;13.20;99.90;;;;;;8129380;29;20028;-79
2023/09/12 02:06:31;;;;;;;25.80;16.50;;;13.20;99.90;;;;;;8141456;29;20039;-78
2023/09/12 02:10:32;;;;;;;27.30;17.52;;;13.10;99.90;;;;;;8127644;29;20768;-78
2023/09/12 02:14:32;;;;;;;21.52;17.05;;;13.10;99.90;;;;;;8142231;29;20040;-78
2023/09/12 02:18:33;;;;;;;21.80;15.73;;;13.10;99.90;;;;;;8135579;29;20028;-77
2023/09/12 02:22:33;;;;;;;24.80;15.95;;;13.20;99.90;;;;;;8135963;29;20035;-79
2023/09/12 02:26:36;;;;;;;21.60;16.52;;;13.20;99.90;;;;;;8142032;29;20698;-77
2023/09/12 02:30:40;;;;;;;22.48;17.33;;;13.00;99.90;;;;;;8143087;29;20039;-78
2023/09/12 02:34:40;;;;;;;22.55;16.20;;;12.90;99.90;;;;;;8141012;29;20028;-78
2023/09/12 02:38:41;;;;;;;26.73;18.33;;;12.80;99.90;;;;;;8125941;29;20677;-78
2023/09/12 02:42:41;;;;;;;25.30;18.60;;;12.70;99.90;;;;;;8149346;29;20025;-78
2023/09/12 02:46:42;;;;;;;25.52;18.83;;;12.80;99.90;;;;;;8149767;29;20024;-78
2023/09/12 02:50:42;;;;;;;20.67;17.23;;;12.90;99.90;;;;;;8142319;29;20651;-76
2023/09/12 02:54:43;;;;;;;20.23;15.75;;;13.00;99.90;;;;;;8125599;29;20580;-77
2023/09/12 02:58:47;;;;;;;28.65;18.10;;;12.80;99.90;;;;;;8133218;29;20034;-78
2023/09/12 03:02:48;;;;;;;24.30;18.27;;;12.90;99.90;;;;;;8147907;29;20457;-78
2023/09/12 03:06:48;;;;;;;26.27;18.27;;;12.80;99.90;;;;;;8120411;29;20083;-77
2023/09/12 03:10:56;;;;;;;24.75;19.15;;;12.70;99.90;;;;;;8138543;29;20028;-78
2023/09/12 03:14:57;;;;;;;25.92;17.95;;;12.70;99.90;;;;;;8123339;29;20767;-77
2023/09/12 03:18:58;;;;;;;28.50;19.33;;;12.70;99.90;;;;;;8140367;29;20032;-78
2023/09/12 03:22:58;;;;;;;22.92;16.65;;;12.80;99.90;;;;;;8140313;29;20038;-78
2023/09/12 03:26:59;;;;;;;24.23;17.48;;;12.80;99.90;;;;;;8139806;29;20040;-76
2023/09/12 03:31:08;;;;;;;22.58;17.40;;;12.70;99.90;;;;;;8139391;29;20662;-78
2023/09/12 03:35:08;;;;;;;25.25;18.02;;;12.60;99.90;;;;;;8147498;29;20028;-78
2023/09/12 03:39:09;;;;;;;24.70;15.88;;;12.50;99.90;;;;;;8125551;29;20666;-79
2023/09/12 03:43:09;;;;;;;22.50;16.83;;;12.40;99.90;;;;;;8140241;29;20035;-79
2023/09/12 03:47:10;;;;;;;24.88;17.92;;;12.30;99.90;;;;;;8137028;29;20032;-78
2023/09/12 03:51:10;;;;;;;20.48;15.98;;;12.40;99.90;;;;;;8128799;29;21550;-76
2023/09/12 03:55:11;;;;;;;22.25;16.95;;;12.30;99.90;;;;;;8121127;29;20034;-78
2023/09/12 03:59:11;;;;;;;22.60;16.90;;;12.20;99.90;;;;;;8141329;29;20028;-78
2023/09/12 04:03:12;;;;;;;24.23;16.65;;;12.30;99.90;;;;;;8129297;29;20646;-78
2023/09/12 04:07:16;;;;;;;23.17;17.10;;;12.20;99.90;;;;;;8139360;29;20032;-78
2023/09/12 04:11:16;;;;;;;24.25;16.85;;;12.10;99.90;;;;;;8123652;29;20036;-78
2023/09/12 04:15:17;;;;;;;24.25;17.25;;;12.00;99.90;;;;;;8121880;29;20044;-77
2023/09/12 04:19:17;;;;;;;24.27;17.27;;;12.00;99.90;;;;;;8145842;29;20745;-78
2023/09/12 04:23:18;;;;;;;28.10;18.92;;;12.00;99.90;;;;;;8136870;29;20012;-78
2023/09/12 04:27:18;;;;;;;28.67;20.08;;;12.00;99.90;;;;;;8138685;29;20056;-78
2023/09/12 04:31:19;;;;;;;35.05;20.90;;;12.10;99.90;;;;;;8139185;29;20052;-77
2023/09/12 04:35:20;;;;;;;28.75;20.45;;;12.10;99.90;;;;;;8137281;29;20108;-78
2023/09/12 04:39:21;;;;;;;28.65;19.75;;;12.20;99.90;;;;;;8135658;29;20119;-77
2023/09/12 04:43:21;;;;;;;27.25;18.83;;;12.20;99.90;;;;;;8130330;29;20024;-77
2023/09/12 04:47:22;;;;;;;25.88;17.27;;;12.00;99.90;;;;;;8119283;29;20032;-78
2023/09/12 04:51:22;;;;;;;25.38;17.35;;;12.00;99.90;;;;;;8119669;29;20020;-77
2023/09/12 04:55:23;;;;;;;24.00;18.13;;;11.90;99.90;;;;;;8121021;29;20516;-77
2023/09/12 04:59:23;;;;;;;24.48;17.05;;;11.80;99.90;;;;;;8137265;29;20115;-76
2023/09/12 05:03:24;;;;;;;21.40;16.38;;;11.80;99.90;;;;;;8135539;29;20501;-77
2023/09/12 05:07:24;;;;;;;25.67;17.73;;;11.70;99.90;;;;;;8136887;29;20213;-78
2023/09/12 05:11:25;;;;;;;25.63;18.30;;;11.70;99.90;;;;;;8142307;29;20039;-77
2023/09/12 05:15:25;;;;;;;21.70;17.10;;;11.90;99.90;;;;;;8141801;29;20032;-77
2023/09/12 05:19:26;;;;;;;25.95;19.40;;;11.90;99.90;;;;;;8135417;29;20035;-77
2023/09/12 05:23:27;;;;;;;30.73;21.13;;;11.90;99.90;;;;;;8126685;29;20167;-78
2023/09/12 05:27:27;;;;;;;26.77;20.23;;;12.00;99.90;;;;;;8141762;29;20032;-78
2023/09/12 05:31:28;;;;;;;27.63;20.00;;;12.10;99.90;;;;;;8149097;29;20748;-78
2023/09/12 05:35:28;;;;;;;30.48;22.35;;;12.10;99.90;;;;;;8126423;29;20043;-77
2023/09/12 05:39:29;;;;;;;29.80;21.92;;;12.40;99.90;;;;;;8126165;29;20047;-77
2023/09/12 05:43:29;;;;;;;28.15;19.23;;;12.70;99.90;;;;;;8148302;29;20020;-78
2023/09/12 05:47:30;;;;;;;27.10;20.67;;;12.80;99.90;;;;;;8126597;29;20048;-78
2023/09/12 05:51:31;;;;;;;25.85;19.45;;;12.90;99.90;;;;;;8149715;29;20051;-77
2023/09/12 05:55:31;;;;;;;33.75;19.70;;;12.90;99.90;;;;;;8140306;29;20472;-78
2023/09/12 05:59:32;;;;;;;27.08;19.70;;;13.00;99.90;;;;;;8147883;29;20346;-77
2023/09/12 06:03:33;;;;;;;30.80;19.50;;;13.10;99.90;;;;;;8139957;29;20511;-78
2023/09/12 06:07:34;;;;;;;28.52;18.65;;;13.30;99.90;;;;;;8147620;29;20063;-77
2023/09/12 06:11:34;;;;;;;20.92;16.10;;;13.40;99.90;;;;;;8125381;29;20694;-77
2023/09/12 06:15:35;;;;;;;27.48;16.80;;;13.60;99.90;;;;;;8124698;29;20116;-77
2023/09/12 06:19:36;;;;;;;24.00;17.13;;;13.70;99.90;;;;;;8124014;29;20032;-77
2023/09/12 06:23:36;;;;;;;21.55;16.10;;;13.80;99.90;;;;;;8124416;29;20360;-78
2023/09/12 06:27:37;;;;;;;20.48;17.55;;;13.90;99.90;;;;;;8147988;29;20032;-77
2023/09/12 06:31:37;;;;;;;25.92;17.60;;;14.20;99.90;;;;;;8139328;29;20063;-76
2023/09/12 06:35:38;;;;;;;24.42;18.20;;;14.40;99.90;;;;;;8138751;29;20028;-77
2023/09/12 06:39:38;;;;;;;22.17;17.75;;;14.70;99.90;;;;;;8145029;29;20027;-78
2023/09/12 06:43:39;;;;;;;24.73;17.90;;;14.90;99.90;;;;;;8139703;29;20030;-77
2023/09/12 06:47:39;;;;;;;19.38;16.00;;;15.30;99.90;;;;;;8146465;29;20020;-78
2023/09/12 06:51:40;;;;;;;22.58;17.15;;;15.60;99.90;;;;;;8138831;29;20026;-78
2023/09/12 06:55:40;;;;;;;18.10;15.32;;;15.70;99.90;;;;;;8146481;29;20060;-78
2023/09/12 06:59:41;;;;;;;20.90;14.93;;;16.00;99.90;;;;;;8123782;29;20039;-77
2023/09/12 07:03:42;;;;;;;18.65;14.38;;;16.10;99.90;;;;;;8133478;29;20035;-77
2023/09/12 07:07:42;;;;;;;20.90;15.27;;;16.40;99.90;;;;;;8137679;29;20235;-77
2023/09/12 07:11:43;;;;;;;16.88;14.00;;;16.70;99.90;;;;;;8145696;29;20507;-78
2023/09/12 07:15:43;;;;;;;18.65;15.15;;;17.00;99.90;;;;;;8123100;29;20024;-79
2023/09/12 07:19:44;;;;;;;17.17;14.75;;;17.30;99.90;;;;;;8137832;29;20039;-78
2023/09/12 07:23:44;;;;;;;15.68;13.25;;;17.70;99.90;;;;;;8137757;29;20220;-78
2023/09/12 07:27:45;;;;;;;14.93;12.98;;;17.90;99.90;;;;;;8131223;29;20090;-78
2023/09/12 07:31:45;;;;;;;20.15;13.52;;;18.20;99.90;;;;;;8144453;29;20163;-78
2023/09/12 07:35:46;;;;;;;17.77;12.60;;;18.50;99.90;;;;;;8137351;29;20024;-78
2023/09/12 07:39:47;;;;;;;18.25;13.95;;;18.80;99.90;;;;;;8136991;29;20066;-78
2023/09/12 07:43:47;;;;;;;16.13;13.32;;;19.10;99.90;;;;;;8122528;29;20044;-78
2023/09/12 07:47:48;;;;;;;16.83;12.70;;;19.80;99.90;;;;;;8122344;29;20111;-78
2023/09/12 07:51:49;;;;;;;15.13;12.50;;;20.10;99.90;;;;;;8137522;29;20020;-78
2023/09/12 07:55:50;;;;;;;15.35;13.10;;;20.20;99.90;;;;;;8136790;29;20020;-78
2023/09/12 07:59:50;;;;;;;17.70;12.38;;;20.60;99.90;;;;;;8122028;29;20342;-78
2023/09/12 08:03:51;;;;;;;35.45;12.10;;;21.00;99.90;;;;;;8121414;29;20167;-78
2023/09/12 08:07:52;;;;;;;18.00;13.25;;;21.30;99.90;;;;;;8121811;29;20188;-79
2023/09/12 08:11:52;;;;;;;17.50;12.30;;;21.40;99.90;;;;;;8136120;29;20035;-77
2023/09/12 08:15:53;;;;;;;12.02;10.55;;;22.10;99.90;;;;;;8129625;29;20636;-78
2023/09/12 08:19:53;;;;;;;12.10;9.68;;;22.50;99.90;;;;;;8129079;29;20080;-78
2023/09/12 08:23:54;;;;;;;10.70;9.52;;;22.80;99.90;;;;;;8135884;29;20035;-80
2023/09/12 08:27:55;;;;;;;11.98;9.70;;;23.20;99.90;;;;;;8143910;29;20024;-79
2023/09/12 08:31:55;;;;;;;10.85;9.75;;;23.90;99.90;;;;;;8143872;29;20111;-78
2023/09/12 08:35:56;;;;;;;11.05;9.85;;;24.20;99.90;;;;;;8128999;29;20030;-78
2023/09/12 08:39:58;;;;;;;11.15;9.88;;;24.60;99.90;;;;;;8129017;29;20032;-79
2023/09/12 08:44:00;;;;;;;12.98;10.02;;;24.90;99.90;;;;;;8135163;29;20448;-79
2023/09/12 08:48:03;;;;;;;11.93;9.43;;;25.60;99.90;;;;;;8128215;29;20091;-79
2023/09/12 08:52:07;;;;;;;10.88;9.82;;;26.10;99.90;;;;;;8142901;29;20052;-79
2023/09/12 08:56:09;;;;;;;10.55;9.45;;;26.40;99.90;;;;;;8120514;29;20028;-79
2023/09/12 09:00:14;;;;;;;10.68;9.10;;;27.00;99.90;;;;;;8135956;29;20063;-79
2023/09/12 09:04:14;;;;;;;12.07;8.90;;;27.60;99.90;;;;;;8121084;29;20020;-79
2023/09/12 09:08:15;;;;;;;23.83;12.60;;;27.50;99.90;;;;;;8139246;29;20032;-78
2023/09/12 09:12:16;;;;;;;12.02;10.43;;;27.50;99.90;;;;;;8140618;29;20028;-79
2023/09/12 09:16:21;;;;;;;16.20;10.40;;;27.60;99.90;;;;;;8135026;29;20091;-80
2023/09/12 09:20:37;;;;;;;10.18;9.10;;;27.70;99.90;;;;;;8129171;29;20260;-79
2023/09/12 09:24:37;;;;;;;10.75;9.55;;;27.70;99.90;;;;;;8144460;29;20756;-79
2023/09/12 09:28:39;;;;;;;24.38;12.85;;;28.00;99.90;;;;;;8148860;29;20020;-79
2023/09/12 09:32:39;;;;;;;14.77;9.55;;;28.10;99.90;;;;;;8144520;29;20642;-79
2023/09/12 09:37:04;;;;;;;13.75;9.23;;;27.90;99.90;;;;;;8135289;29;20031;-79
2023/09/12 09:41:06;;;;;;;16.27;9.48;;;28.60;99.90;;;;;;8129529;29;20031;-78
2023/09/12 09:45:07;;;;;;;10.15;8.48;;;28.90;99.90;;;;;;8134621;29;20028;-80
2023/09/12 09:49:17;;;;;;;16.15;9.52;;;29.00;99.90;;;;;;8134958;29;20526;-79
2023/09/12 09:53:26;;;;;;;13.07;9.10;;;29.30;99.90;;;;;;8119243;29;20050;-78
2023/09/12 09:57:26;;;;;;;11.55;8.88;;;29.60;99.90;;;;;;8137316;29;20401;-79
2023/09/12 10:01:30;;;;;;;9.55;8.55;;;29.80;99.90;;;;;;8131213;29;20210;-79
2023/09/12 10:05:32;;;;;;;10.13;8.55;;;30.00;99.90;;;;;;8137686;29;20539;-79
2023/09/12 10:09:34;;;;;;;13.13;8.82;;;29.70;99.90;;;;;;8145767;29;20755;-79
2023/09/12 10:13:37;;;;;;;9.95;9.00;;;29.50;99.90;;;;;;8137904;29;20737;-80
2023/09/12 10:17:42;;;;;;;12.27;8.95;;;29.70;99.90;;;;;;8145160;29;20029;-78
2023/09/12 10:21:53;;;;;;;11.77;9.00;;;30.80;99.90;;;;;;8137783;29;20055;-80
2023/09/12 10:25:55;;;;;;;10.27;8.25;;;31.70;99.90;;;;;;8130959;29;20400;-79
2023/09/12 10:29:59;;;;;;;11.85;8.07;;;32.00;99.90;;;;;;8137361;29;20297;-80
2023/09/12 10:34:02;;;;;;;8.75;7.43;;;31.80;99.90;;;;;;8145634;29;20031;-78
2023/09/12 10:38:05;;;;;;;9.38;8.43;;;31.60;99.90;;;;;;8130364;29;20039;-79
2023/09/12 10:42:06;;;;;;;9.30;7.30;;;31.90;99.90;;;;;;8138097;29;20020;-79
2023/09/12 10:46:08;;;;;;;10.05;8.52;;;32.00;99.90;;;;;;8136940;29;20040;-80
2023/09/12 10:50:09;;;;;;;9.27;8.27;;;32.70;99.90;;;;;;8129862;29;20030;-80
2023/09/12 10:54:14;;;;;;;9.18;8.25;;;33.20;99.90;;;;;;8152945;29;20035;-80
2023/09/12 10:58:15;;;;;;;9.68;8.43;;;33.60;97.90;;;;;;8145069;29;20420;-79
2023/09/12 11:02:29;;;;;;;8.50;7.53;;;33.30;99.90;;;;;;8147763;29;20107;-80
2023/09/12 11:06:31;;;;;;;8.85;7.65;;;34.00;99.20;;;;;;8144069;28;20043;-80
2023/09/12 11:10:32;;;;;;;10.43;7.70;;;33.90;99.30;;;;;;8131994;29;20055;-80
2023/09/12 11:14:32;;;;;;;8.70;7.90;;;33.40;96.00;;;;;;8135954;29;20244;-80
2023/09/12 11:18:33;;;;;;;8.90;7.60;;;32.60;97.60;;;;;;8121825;29;20099;-80
2023/09/12 11:22:34;;;;;;;8.52;7.72;;;33.10;99.10;;;;;;8136237;29;20031;-80
2023/09/12 11:26:35;;;;;;;11.40;8.05;;;33.30;97.90;;;;;;8128856;29;20032;-80
2023/09/12 11:30:36;;;;;;;9.32;7.60;;;34.50;93.50;;;;;;8135873;29;20076;-79
2023/09/12 11:34:47;;;;;;;9.73;7.20;;;35.40;92.00;;;;;;8121879;29;20024;-80
2023/09/12 11:38:50;;;;;;;7.93;7.18;;;35.10;94.40;;;;;;8136049;29;20032;-80
2023/09/12 11:42:51;;;;;;;12.30;7.63;;;35.20;90.40;;;;;;8135023;29;20036;-80
2023/09/12 11:46:53;;;;;;;7.60;6.85;;;36.40;91.90;;;;;;8135130;29;20125;-80
2023/09/12 11:50:55;;;;;;;7.88;6.55;;;36.60;83.40;;;;;;8135650;29;20059;-80
2023/09/12 11:54:55;;;;;;;8.18;6.38;;;36.40;90.70;;;;;;8135385;28;20262;-80
2023/09/12 11:58:56;;;;;;;8.00;6.45;;;37.40;82.20;;;;;;8128019;29;20436;-81
2023/09/12 12:02:57;;;;;;;20.13;6.13;;;38.30;80.00;;;;;;8142394;29;20281;-80
2023/09/12 12:06:58;;;;;;;7.13;5.28;;;38.40;72.10;;;;;;8148934;29;20087;-80
2023/09/12 12:10:59;;;;;;;8.98;5.90;;;39.20;70.90;;;;;;8127413;29;20060;-80
2023/09/12 12:15:00;;;;;;;12.07;6.07;;;38.80;70.60;;;;;;8133644;29;20032;-79
2023/09/12 12:19:00;;;;;;;7.25;6.30;;;38.40;71.00;;;;;;8140942;28;20115;-80
2023/09/12 12:23:01;;;;;;;8.52;6.32;;;38.10;65.20;;;;;;8133809;29;20028;-80
2023/09/12 12:27:03;;;;;;;11.18;6.30;;;37.00;71.80;;;;;;8127360;29;20488;-80
2023/09/12 12:31:04;;;;;;;8.00;6.10;;;37.30;71.10;;;;;;8134228;29;20032;-80
2023/09/12 12:35:07;;;;;;;9.20;5.72;;;38.00;68.20;;;;;;8141824;29;20019;-79
2023/09/12 12:39:11;;;;;;;8.32;6.53;;;38.20;67.90;;;;;;8141157;29;20027;-80
2023/09/12 12:43:19;;;;;;;7.38;6.03;;;38.70;63.10;;;;;;8127273;29;20115;-81
2023/09/12 12:47:21;;;;;;;7.45;5.82;;;38.90;64.20;;;;;;8118742;29;20162;-81
2023/09/12 12:51:26;;;;;;;7.32;5.60;;;38.50;62.20;;;;;;8136548;29;20028;-80
2023/09/12 12:55:26;;;;;;;7.65;6.28;;;38.40;60.50;;;;;;8129820;29;20327;-80
2023/09/12 12:59:27;;;;;;;7.00;5.90;;;38.60;59.50;;;;;;8133017;29;20507;-80
2023/09/12 13:03:27;;;;;;;7.57;6.38;;;39.30;57.30;;;;;;8142814;29;20127;-81
2023/09/12 13:07:28;;;;;;;10.13;6.55;;;40.10;59.30;;;;;;8140202;29;20405;-80
2023/09/12 13:11:28;;;;;;;9.63;6.63;;;40.00;53.20;;;;;;8144967;29;20080;-81
2023/09/12 13:15:29;;;;;;;8.73;6.70;;;39.60;60.70;;;;;;8128931;29;20075;-80
2023/09/12 13:19:30;;;;;;;8.68;6.47;;;39.20;56.10;;;;;;8132055;29;20516;-80
2023/09/12 13:23:30;;;;;;;6.47;5.82;;;38.10;57.90;;;;;;8132520;29;20115;-81
2023/09/12 13:27:31;;;;;;;8.60;6.50;;;38.50;64.40;;;;;;8117322;29;20036;-81
2023/09/12 13:31:31;;;;;;;8.82;6.22;;;39.50;58.50;;;;;;8144271;29;20032;-80
2023/09/12 13:35:32;;;;;;;9.57;5.60;;;40.50;52.80;;;;;;8153306;28;20024;-80
2023/09/12 13:39:33;;;;;;;6.13;5.63;;;41.30;53.60;;;;;;8138150;29;20238;-81
2023/09/12 13:43:33;;;;;;;7.00;5.70;;;41.40;52.50;;;;;;8143422;29;20031;-80
2023/09/12 13:47:34;;;;;;;8.50;6.30;;;42.20;51.20;;;;;;8126151;29;20040;-80
2023/09/12 13:51:35;;;;;;;10.48;6.00;;;42.50;50.60;;;;;;8138445;29;20108;-81
2023/09/12 13:55:37;;;;;;;6.15;5.57;;;41.60;52.90;;;;;;8146252;29;20028;-80
2023/09/12 13:59:37;;;;;;;7.35;5.82;;;41.90;50.80;;;;;;8124043;29;20084;-80
2023/09/12 14:03:38;;;;;;;6.50;5.90;;;42.90;50.50;;;;;;8137169;29;20024;-80
2023/09/12 14:07:39;;;;;;;8.68;6.25;;;43.00;48.00;;;;;;8122349;29;20028;-80
2023/09/12 14:11:40;;;;;;;9.45;6.40;;;42.80;47.00;;;;;;8122857;29;20043;-79
2023/09/12 14:15:40;;;;;;;6.88;5.82;;;43.10;46.30;;;;;;8135954;29;20578;-80
2023/09/12 14:19:41;;;;;;;8.50;6.20;;;43.60;44.50;;;;;;8121769;29;20020;-80
2023/09/12 14:23:41;;;;;;;5.75;5.15;;;42.80;48.20;;;;;;8121738;29;20039;-80
2023/09/12 14:27:43;;;;;;;7.47;6.30;;;39.40;49.60;;;;;;8135473;29;20473;-80
2023/09/12 14:31:49;;;;;;;7.00;5.97;;;36.10;61.40;;;;;;8120647;29;20023;-80
2023/09/12 14:35:50;;;;;;;9.18;5.93;;;34.40;72.90;;;;;;8132553;29;20242;-79
2023/09/12 14:39:50;;;;;;;9.18;6.75;;;33.00;76.80;;;;;;8138442;29;20032;-80
2023/09/12 14:43:51;;;;;;;8.70;6.43;;;32.10;79.70;;;;;;8126890;29;20484;-80
2023/09/12 14:47:52;;;;;;;9.02;6.13;;;31.30;82.90;;;;;;8140688;29;20107;-79
2023/09/12 14:51:53;;;;;;;9.93;6.60;;;30.60;85.10;;;;;;8124841;29;20024;-79
2023/09/12 14:55:54;;;;;;;13.25;6.88;;;30.10;93.10;;;;;;8136534;29;20167;-80
2023/09/12 14:59:55;;;;;;;10.43;6.80;;;29.40;93.00;;;;;;8136608;29;20695;-80
2023/09/12 15:03:56;;;;;;;13.00;7.05;;;29.20;98.00;;;;;;8138876;29;20039;-81
2023/09/12 15:07:56;;;;;;;10.68;7.07;;;28.60;97.60;;;;;;8139976;29;20046;-79
2023/09/12 15:11:57;;;;;;;12.32;7.65;;;28.10;99.90;;;;;;8139600;29;20016;-80
2023/09/12 15:15:57;;;;;;;8.10;6.90;;;27.70;99.90;;;;;;8122918;29;20302;-80
2023/09/12 15:19:58;;;;;;;8.57;7.07;;;27.50;99.90;;;;;;8136720;29;20035;-80
2023/09/12 15:23:58;;;;;;;10.07;7.10;;;27.60;99.90;;;;;;8123593;29;20024;-79
2023/09/12 15:27:59;;;;;;;8.45;6.95;;;27.70;99.90;;;;;;8140415;29;20020;-80
2023/09/12 15:32:02;;;;;;;15.13;7.10;;;27.60;99.90;;;;;;8127470;29;20027;-80
2023/09/12 15:36:03;;;;;;;11.40;7.70;;;27.30;99.90;;;;;;8139982;29;20038;-79
2023/09/12 15:40:05;;;;;;;12.65;8.30;;;27.00;99.90;;;;;;8137109;28;20036;-80
2023/09/12 15:44:06;;;;;;;13.18;8.40;;;26.80;99.90;;;;;;8138855;29;20804;-80
2023/09/12 15:48:06;;;;;;;8.38;7.20;;;26.60;99.90;;;;;;8147380;29;20607;-80
2023/09/12 15:52:07;;;;;;;10.25;8.65;;;26.10;99.90;;;;;;8136646;29;20054;-81
2023/09/12 15:56:08;;;;;;;9.65;7.53;;;25.60;99.90;;;;;;8140095;29;20041;-80
2023/09/12 16:00:12;;;;;;;9.35;7.00;;;25.30;99.90;;;;;;8139215;29;20032;-79
2023/09/12 16:04:13;;;;;;;9.30;7.60;;;25.30;99.90;;;;;;8135069;29;20036;-79
2023/09/12 16:08:14;;;;;;;10.65;6.32;;;25.50;99.90;;;;;;8136794;29;20123;-78
2023/09/12 16:12:14;;;;;;;13.05;6.00;;;25.50;99.90;;;;;;8124745;29;20020;-80
2023/09/12 16:16:15;;;;;;;9.98;6.20;;;25.30;99.90;;;;;;8132276;29;20119;-80
2023/09/12 16:20:16;;;;;;;6.80;6.10;;;25.20;99.90;;;;;;8131534;29;20631;-81
2023/09/12 16:24:16;;;;;;;10.32;6.00;;;25.20;99.90;;;;;;8133530;29;20047;-81
2023/09/12 16:28:17;;;;;;;6.72;5.38;;;25.00;99.90;;;;;;8133023;29;20526;-79
2023/09/12 16:32:17;;;;;;;8.35;4.28;;;24.90;99.90;;;;;;8149692;29;20028;-80
2023/09/12 16:36:18;;;;;;;6.93;4.13;;;24.80;99.90;;;;;;8147308;29;20059;-80
2023/09/12 16:40:19;;;;;;;8.60;3.72;;;24.60;99.90;;;;;;8146691;29;20036;-80
2023/09/12 16:44:19;;;;;;;6.57;3.50;;;24.50;99.90;;;;;;8148609;29;20035;-80
2023/09/12 16:48:20;;;;;;;6.30;3.30;;;24.40;99.90;;;;;;8133317;29;20079;-79
2023/09/12 16:52:21;;;;;;;5.50;3.00;;;24.50;99.90;;;;;;8148071;29;20114;-79
2023/09/12 16:56:21;;;;;;;3.92;2.40;;;24.30;99.90;;;;;;8132763;29;20039;-79
2023/09/12 17:00:22;;;;;;;4.25;3.38;;;23.50;99.90;;;;;;8148161;29;20035;-79
2023/09/12 17:04:23;;;;;;;5.40;3.35;;;23.20;99.90;;;;;;8149213;29;20024;-79
2023/09/12 17:08:23;;;;;;;14.50;4.93;;;23.20;99.90;;;;;;8153113;29;20036;-79
2023/09/12 17:12:24;;;;;;;8.02;4.70;;;23.10;99.90;;;;;;8137009;29;20725;-79
2023/09/12 17:16:25;;;;;;;9.05;4.68;;;23.00;99.90;;;;;;8153095;29;20100;-79
2023/09/12 17:20:26;;;;;;;11.18;4.65;;;22.90;99.90;;;;;;8153479;29;20036;-79
2023/09/12 17:24:26;;;;;;;7.95;4.47;;;22.70;99.90;;;;;;8153516;29;20107;-80
2023/09/12 17:28:27;;;;;;;8.82;4.50;;;22.70;99.90;;;;;;8138058;29;20020;-79
2023/09/12 17:32:29;;;;;;;6.75;4.55;;;22.40;99.90;;;;;;8153858;29;20024;-80
2023/09/12 17:36:30;;;;;;;9.13;4.60;;;22.20;99.90;;;;;;8153844;29;20063;-80
2023/09/12 17:40:30;;;;;;;6.63;4.60;;;21.90;99.90;;;;;;8153513;29;20036;-80
2023/09/12 17:44:31;;;;;;;10.57;4.80;;;21.70;99.90;;;;;;8153618;29;20115;-80
2023/09/12 17:48:31;;;;;;;7.32;4.97;;;21.80;99.90;;;;;;8139232;29;20508;-80
2023/09/12 17:52:32;;;;;;;9.23;4.72;;;21.60;99.90;;;;;;8153828;29;20512;-79
2023/09/12 17:56:32;;;;;;;6.72;4.50;;;21.60;99.90;;;;;;8152670;29;20039;-80
2023/09/12 18:00:34;;;;;;;12.13;4.97;;;21.90;99.90;;;;;;8153477;29;20032;-79
2023/09/12 18:04:35;;;;;;;9.52;5.43;;;21.80;99.90;;;;;;8157447;29;20032;-80
2023/09/12 18:08:35;;;;;;;8.25;5.18;;;21.40;99.90;;;;;;8152171;29;20534;-80
2023/09/12 18:12:36;;;;;;;10.40;5.43;;;21.00;99.90;;;;;;8136772;29;20039;-80
2023/09/12 18:16:37;;;;;;;11.15;5.25;;;20.70;99.90;;;;;;8136550;29;20118;-80
2023/09/12 18:20:37;;;;;;;10.48;5.15;;;20.50;99.90;;;;;;8136768;29;20024;-80
2023/09/12 18:24:38;;;;;;;10.45;5.13;;;20.40;99.90;;;;;;8150851;29;20037;-80
2023/09/12 18:28:44;;;;;;;9.55;4.65;;;20.30;99.90;;;;;;8137980;29;20075;-80
2023/09/12 18:32:45;;;;;;;8.02;4.63;;;20.20;99.90;;;;;;8138720;29;20068;-81
2023/09/12 18:36:45;;;;;;;8.35;5.35;;;20.00;99.90;;;;;;8139129;29;20023;-80
2023/09/12 18:40:46;;;;;;;10.10;5.38;;;19.80;99.90;;;;;;8139123;29;20036;-80
2023/09/12 18:44:46;;;;;;;11.23;6.50;;;19.60;99.90;;;;;;8152535;29;20028;-80
2023/09/12 18:48:47;;;;;;;9.48;5.93;;;19.60;99.90;;;;;;8136199;29;20035;-81
2023/09/12 18:52:50;;;;;;;7.38;5.57;;;19.80;99.90;;;;;;8159496;29;20031;-79
2023/09/12 18:56:51;;;;;;;10.48;6.07;;;19.50;99.90;;;;;;8152553;29;20028;-81
2023/09/12 19:00:51;;;;;;;7.50;5.57;;;19.30;99.90;;;;;;8137795;29;20047;-80
2023/09/12 19:04:52;;;;;;;12.20;7.53;;;19.40;99.90;;;;;;8152620;29;20587;-80
2023/09/12 19:08:52;;;;;;;9.13;7.20;;;19.40;99.90;;;;;;8153027;29;20028;-81
2023/09/12 19:12:53;;;;;;;7.82;5.88;;;19.10;99.90;;;;;;8152104;29;20174;-80
2023/09/12 19:16:54;;;;;;;21.33;14.57;;;19.00;99.90;;;;;;8152759;29;20058;-80
2023/09/12 19:20:55;;;;;;;7.63;6.03;;;19.20;99.90;;;;;;8151887;29;20024;-79
2023/09/12 19:24:56;;;;;;;9.68;5.82;;;19.20;99.90;;;;;;8151673;29;20035;-80
2023/09/12 19:28:58;;;;;;;6.82;4.45;;;18.90;99.90;;;;;;8152402;29;20107;-80
2023/09/12 19:33:00;;;;;;;8.15;3.80;;;18.60;99.90;;;;;;8137423;29;20036;-79
2023/09/12 19:37:00;;;;;;;6.22;3.00;;;18.50;99.90;;;;;;8150955;29;20024;-80
2023/09/12 19:41:01;;;;;;;4.85;2.90;;;18.80;99.90;;;;;;8151188;29;20047;-80
2023/09/12 19:45:01;;;;;;;5.95;2.92;;;18.70;99.90;;;;;;8152341;29;20023;-80
2023/09/12 19:49:02;;;;;;;5.22;3.17;;;18.70;99.90;;;;;;8151482;29;20036;-79
2023/09/12 19:53:03;;;;;;;5.75;3.45;;;18.50;99.90;;;;;;8149859;29;20409;-79
2023/09/12 19:57:03;;;;;;;5.70;3.30;;;18.30;99.90;;;;;;8132089;29;20028;-82
2023/09/12 20:01:06;;;;;;;11.13;4.28;;;18.20;99.90;;;;;;8134397;29;20127;-83
2023/09/12 20:05:07;;;;;;;4.43;3.10;;;18.00;99.90;;;;;;8136198;29;20043;-83
2023/09/12 20:09:10;;;;;;;6.50;3.50;;;17.80;99.90;;;;;;8136258;29;20064;-83
2023/09/12 20:13:11;;;;;;;6.82;3.67;;;17.70;99.90;;;;;;8136089;29;20043;-83
2023/09/12 20:17:12;;;;;;;4.82;3.78;;;17.50;99.90;;;;;;8134534;29;20030;-83
2023/09/12 20:21:12;;;;;;;6.80;4.07;;;17.40;99.90;;;;;;8149499;29;20024;-83
2023/09/12 20:25:13;;;;;;;5.72;4.07;;;17.40;99.90;;;;;;8136512;29;20056;-83
2023/09/12 20:29:14;;;;;;;5.97;3.67;;;17.70;99.90;;;;;;8153156;29;20091;-83
2023/09/12 20:33:14;;;;;;;6.43;4.00;;;17.60;99.90;;;;;;8150436;29;20164;-82
2023/09/12 20:37:15;;;;;;;6.72;4.05;;;17.40;99.90;;;;;;8152456;29;20032;-82